Marit Maersk — OWYH2 — position and weather

sailwx.info

Track history (hours):
 
Tides and Currents Weather Stations Pressure Air Temp Water Temp Dewpoint Dewpoint Depression Visibility Wind Speed Wind Dir Waves Ship Positions

Marit Maersk

Last reported at 2018-Jan-21 02:47 UTC. Time now 2018-Jan-24 07:35 UTC.
Position N 01°16' E 104°09'.

Length 399 m; draft 14.3 m.

Type: Ship (hazmat cat A). MMSI: 219632000.

Date/timePositionNaut miles runAvg speedWind from/ knotsBaromVisibWave heightAir tempDewpointWater temp
2018-Jan-21 02:47N 01°16' E 104°09'517.5
2018-Jan-21 02:29N 01°15' E 104°04'817.0
2018-Jan-21 02:00N 01°13' E 103°56'612.9
2018-Jan-21 01:30N 01°11' E 103°50'4 7.6
2018-Jan-21 00:59N 01°13' E 103°47'3 7.2
2018-Jan-21 00:31N 01°16' E 103°45'0 0.6
2018-Jan-20 23:59N 01°17' E 103°45'0 0.0
2018-Jan-20 23:31N 01°17' E 103°45'0 0.0
2018-Jan-20 22:59N 01°17' E 103°45'0 0.0
2018-Jan-20 22:30N 01°17' E 103°45'0 0.0
2018-Jan-20 22:01N 01°17' E 103°45'0 0.0
2018-Jan-20 21:31N 01°17' E 103°45'0 0.0
2018-Jan-20 21:00N 01°17' E 103°45'0 0.0
2018-Jan-20 20:28N 01°17' E 103°45'0 0.0
2018-Jan-20 19:55N 01°17' E 103°45'0 0.0
2018-Jan-20 19:22N 01°17' E 103°45'0 0.0
2018-Jan-20 18:58N 01°17' E 103°45'0 0.0
2018-Jan-20 18:28N 01°17' E 103°45'0 0.0
2018-Jan-20 17:52N 01°17' E 103°45'0 0.0
2018-Jan-20 17:28N 01°17' E 103°45'0 0.0
2018-Jan-20 16:49N 01°17' E 103°45'0 0.0
2018-Jan-20 16:25N 01°17' E 103°45'0 0.0
2018-Jan-20 15:58N 01°17' E 103°45'0 0.0
2018-Jan-20 15:28N 01°17' E 103°45'0 0.0
2018-Jan-20 14:58N 01°17' E 103°45'0 0.0
2018-Jan-20 14:28N 01°17' E 103°45'0 0.0
2018-Jan-20 13:52N 01°17' E 103°45'0 0.0
2018-Jan-20 13:22N 01°17' E 103°45'0 0.0
2018-Jan-20 12:58N 01°17' E 103°45'0 0.0
2018-Jan-20 12:28N 01°17' E 103°45'0 0.0
2018-Jan-20 11:58N 01°17' E 103°45'0 0.0
2018-Jan-20 11:28N 01°17' E 103°45'0 0.0
2018-Jan-20 10:58N 01°17' E 103°45'0 0.0
2018-Jan-20 10:28N 01°17' E 103°45'0 0.0
2018-Jan-20 09:52N 01°17' E 103°45'0 0.0
2018-Jan-20 09:28N 01°17' E 103°45'0 0.0
2018-Jan-20 08:55N 01°17' E 103°45'0 0.0
2018-Jan-20 08:25N 01°17' E 103°45'0 0.0
2018-Jan-20 07:58N 01°17' E 103°45'0 0.0
2018-Jan-20 07:28N 01°17' E 103°45'0 0.0
2018-Jan-20 06:52N 01°17' E 103°45'0 0.0
2018-Jan-20 06:25N 01°17' E 103°45'0 0.0
2018-Jan-20 05:52N 01°17' E 103°45'0 0.0
2018-Jan-20 05:28N 01°17' E 103°45'0 0.0
2018-Jan-20 04:52N 01°17' E 103°45'0 0.0
2018-Jan-20 04:28N 01°17' E 103°45'0 0.0
2018-Jan-20 03:58N 01°17' E 103°45'0 0.0
2018-Jan-20 03:28N 01°17' E 103°45'0 0.0
2018-Jan-20 02:52N 01°17' E 103°45'0 0.0
2018-Jan-20 02:28N 01°17' E 103°45'0 0.0
2018-Jan-20 01:58N 01°17' E 103°45'0 0.0
2018-Jan-20 01:25N 01°17' E 103°45'0 0.0
2018-Jan-20 00:58N 01°17' E 103°45'0 0.0
2018-Jan-20 00:28N 01°17' E 103°45'0 0.0
2018-Jan-19 23:58N 01°17' E 103°45'0 0.0
2018-Jan-19 23:28N 01°17' E 103°45'0 0.0
2018-Jan-19 22:55N 01°17' E 103°45'0 0.0
2018-Jan-19 22:28N 01°17' E 103°45'0 0.0
2018-Jan-19 22:00N 01°17' E 103°45'0 0.2
2018-Jan-19 21:30N 01°16' E 103°45'1 2.4
2018-Jan-19 21:00N 01°15' E 103°46'3 5.5
2018-Jan-19 20:30N 01°15' E 103°43'611.1
2018-Jan-19 19:59N 01°12' E 103°38'2 3.2
2018-Jan-19 19:30N 01°13' E 103°37'3 6.8
2018-Jan-19 19:00N 01°11' E 103°34'4 8.3
2018-Jan-19 18:28N 01°10' E 103°29'714.0
2018-Jan-19 18:00N 01°13' E 103°24'714.4
2018-Jan-19 17:30N 01°18' E 103°18'  
Track history (hours):
 
Tides and Currents Weather Stations Pressure Air Temp Water Temp Dewpoint Dewpoint Depression Visibility Wind Speed Wind Dir Waves Ship Positions

Marit Maersk

Last reported at 2018-Jan-21 02:47 UTC. Time now 2018-Jan-24 07:35 UTC.
Position N 01°16' E 104°09'.

Length 399 m; draft 14.3 m.

Type: Ship (hazmat cat A). MMSI: 219632000.

Date/timePositionNaut miles runAvg speedWind from/ knotsBaromVisibWave heightAir tempDewpointWater temp
2018-Jan-21 02:47N 01°16' E 104°09'517.5
2018-Jan-21 02:29N 01°15' E 104°04'817.0
2018-Jan-21 02:00N 01°13' E 103°56'612.9
2018-Jan-21 01:30N 01°11' E 103°50'4 7.6
2018-Jan-21 00:59N 01°13' E 103°47'3 7.2
2018-Jan-21 00:31N 01°16' E 103°45'0 0.6
2018-Jan-20 23:59N 01°17' E 103°45'0 0.0
2018-Jan-20 23:31N 01°17' E 103°45'0 0.0
2018-Jan-20 22:59N 01°17' E 103°45'0 0.0
2018-Jan-20 22:30N 01°17' E 103°45'0 0.0
2018-Jan-20 22:01N 01°17' E 103°45'0 0.0
2018-Jan-20 21:31N 01°17' E 103°45'0 0.0
2018-Jan-20 21:00N 01°17' E 103°45'0 0.0
2018-Jan-20 20:28N 01°17' E 103°45'0 0.0
2018-Jan-20 19:55N 01°17' E 103°45'0 0.0
2018-Jan-20 19:22N 01°17' E 103°45'0 0.0
2018-Jan-20 18:58N 01°17' E 103°45'0 0.0
2018-Jan-20 18:28N 01°17' E 103°45'0 0.0
2018-Jan-20 17:52N 01°17' E 103°45'0 0.0
2018-Jan-20 17:28N 01°17' E 103°45'0 0.0
2018-Jan-20 16:49N 01°17' E 103°45'0 0.0
2018-Jan-20 16:25N 01°17' E 103°45'0 0.0
2018-Jan-20 15:58N 01°17' E 103°45'0 0.0
2018-Jan-20 15:28N 01°17' E 103°45'0 0.0
2018-Jan-20 14:58N 01°17' E 103°45'0 0.0
2018-Jan-20 14:28N 01°17' E 103°45'0 0.0
2018-Jan-20 13:52N 01°17' E 103°45'0 0.0
2018-Jan-20 13:22N 01°17' E 103°45'0 0.0
2018-Jan-20 12:58N 01°17' E 103°45'0 0.0
2018-Jan-20 12:28N 01°17' E 103°45'0 0.0
2018-Jan-20 11:58N 01°17' E 103°45'0 0.0
2018-Jan-20 11:28N 01°17' E 103°45'0 0.0
2018-Jan-20 10:58N 01°17' E 103°45'0 0.0
2018-Jan-20 10:28N 01°17' E 103°45'0 0.0
2018-Jan-20 09:52N 01°17' E 103°45'0 0.0
2018-Jan-20 09:28N 01°17' E 103°45'0 0.0
2018-Jan-20 08:55N 01°17' E 103°45'0 0.0
2018-Jan-20 08:25N 01°17' E 103°45'0 0.0
2018-Jan-20 07:58N 01°17' E 103°45'0 0.0
2018-Jan-20 07:28N 01°17' E 103°45'0 0.0
2018-Jan-20 06:52N 01°17' E 103°45'0 0.0
2018-Jan-20 06:25N 01°17' E 103°45'0 0.0
2018-Jan-20 05:52N 01°17' E 103°45'0 0.0
2018-Jan-20 05:28N 01°17' E 103°45'0 0.0
2018-Jan-20 04:52N 01°17' E 103°45'0 0.0
2018-Jan-20 04:28N 01°17' E 103°45'0 0.0
2018-Jan-20 03:58N 01°17' E 103°45'0 0.0
2018-Jan-20 03:28N 01°17' E 103°45'0 0.0
2018-Jan-20 02:52N 01°17' E 103°45'0 0.0
2018-Jan-20 02:28N 01°17' E 103°45'0 0.0
2018-Jan-20 01:58N 01°17' E 103°45'0 0.0
2018-Jan-20 01:25N 01°17' E 103°45'0 0.0
2018-Jan-20 00:58N 01°17' E 103°45'0 0.0
2018-Jan-20 00:28N 01°17' E 103°45'0 0.0
2018-Jan-19 23:58N 01°17' E 103°45'0 0.0
2018-Jan-19 23:28N 01°17' E 103°45'0 0.0
2018-Jan-19 22:55N 01°17' E 103°45'0 0.0
2018-Jan-19 22:28N 01°17' E 103°45'0 0.0
2018-Jan-19 22:00N 01°17' E 103°45'0 0.2
2018-Jan-19 21:30N 01°16' E 103°45'1 2.4
2018-Jan-19 21:00N 01°15' E 103°46'3 5.5
2018-Jan-19 20:30N 01°15' E 103°43'611.1
2018-Jan-19 19:59N 01°12' E 103°38'2 3.2
2018-Jan-19 19:30N 01°13' E 103°37'3 6.8
2018-Jan-19 19:00N 01°11' E 103°34'4 8.3
2018-Jan-19 18:28N 01°10' E 103°29'714.0
2018-Jan-19 18:00N 01°13' E 103°24'714.4
2018-Jan-19 17:30N 01°18' E 103°18'  

Dump ship's entire track history